Terminal Aerodrome Forecast
Issued by NWS Cleveland, OH

Home | Current Version | Previous Version | Text Only | Print | Product List | Glossary Off
Versions: 1 2 3 4 5 6 7 8 9 10 11 12 13 14 15 16 17 18 19 20 21 22 23

649
FTUS41 KCLE 181602 AAA
TAFERI
TAF AMD
KERI 181602Z 1816/1912 25008KT P6SM OVC025
     FM181800 29008KT P6SM BKN060
     FM182200 01007KT P6SM BKN080
     FM190100 07008KT P6SM -RASN OVC050
     FM190500 04010KT P6SM -RASN OVC007
     FM190800 03010G18KT 4SM -SN OVC007=

USA.gov is the U.S. government's official web portal to all federal, state and local government web resources and services.